Cut Bank Municipal Airport
KCTB : now visible

Airfield :











YOU CAN JOIN US ON...

 
LOGIN :

Register | Disclaimer

   EN    FR    IT 

 









Legend :    VFR   Marginal VFR   IFR   Intensive IFR   Very Intensive IFR
Visi :
Ceiling :
>= 8 km
>= 3000ft
5 to 8 km
1000 to 3000 ft
1500m to 5 km
500 to 1000 ft
800 to 1500m
200 to 500 ft
< 800m
< 200 ft
Symbols :   Thunderstorms  Fog  Heavy snow  Heavy precipitations  Wind > 20 kt






- Airport Elevation : 3854 ft


KCTB - Cut Bank Municipal

CURRENT METAR :
  • 110856Z AUTO 25009KT 10SM CLR 12/05 A3017 RMK AO2 SLP198 T01170050 50002

EXPIRED METARs :
  • 110756Z AUTO 25006KT 10SM CLR 12/06 A3018 RMK AO2 SLP199 T01170056
  • 110656Z AUTO 25009KT 10SM CLR 13/06 A3017 RMK AO2 SLP198 T01280056 402330117

TAF KCTB
Valid from the 11 at 06:00 until the 12 at 06:00 UTC


110521Z 1106/1206 26007KT P6SM SKC
FM111900 23011G19KT P6SM SKC
FM120100 24010KT P6SM SKC
KZLC FIR / North America



MET'MAP, your aeronautical weather chart ! - Copyright ORBIFLY December 2007 - Disclaimer

ORBIFLY MET'MAP TEAM :

Programming & Development : Alexandra Zaïnal
Concept & original design : Baudouin d'Aumeries
Assistance for programming : Marc-Olivier Méhu
Technical & hardware support : Manuel Goepfert

Contact : metmap@orbifly.com




SOURCES & CREDITS :

   NOAA       Earth
Advisory